sensor_id;sensor_type;location;lat;lon;timestamp;P1;durP1;ratioP1;P2;durP2;ratioP2
25497;SDS011;13406;53.380;7.226;2023-05-24T00:01:04;16.53;;;4.90;;
25497;SDS011;13406;53.380;7.226;2023-05-24T00:03:31;11.90;;;4.77;;
25497;SDS011;13406;53.380;7.226;2023-05-24T00:05:58;14.50;;;5.00;;
25497;SDS011;13406;53.380;7.226;2023-05-24T00:08:24;22.33;;;5.40;;
25497;SDS011;13406;53.380;7.226;2023-05-24T00:10:50;13.13;;;4.70;;
25497;SDS011;13406;53.380;7.226;2023-05-24T00:13:16;14.20;;;4.60;;
25497;SDS011;13406;53.380;7.226;2023-05-24T00:15:41;17.30;;;4.30;;
25497;SDS011;13406;53.380;7.226;2023-05-24T00:18:07;13.77;;;4.60;;
25497;SDS011;13406;53.380;7.226;2023-05-24T00:20:32;17.70;;;4.33;;
25497;SDS011;13406;53.380;7.226;2023-05-24T00:22:57;19.00;;;4.50;;
25497;SDS011;13406;53.380;7.226;2023-05-24T00:25:23;14.87;;;4.60;;
25497;SDS011;13406;53.380;7.226;2023-05-24T00:27:48;13.43;;;4.63;;
25497;SDS011;13406;53.380;7.226;2023-05-24T00:30:14;10.50;;;4.50;;
25497;SDS011;13406;53.380;7.226;2023-05-24T00:32:39;21.00;;;5.20;;
25497;SDS011;13406;53.380;7.226;2023-05-24T00:35:05;13.53;;;4.50;;
25497;SDS011;13406;53.380;7.226;2023-05-24T00:37:30;18.20;;;5.27;;
25497;SDS011;13406;53.380;7.226;2023-05-24T00:39:56;11.83;;;4.20;;
25497;SDS011;13406;53.380;7.226;2023-05-24T00:42:21;12.07;;;4.23;;
25497;SDS011;13406;53.380;7.226;2023-05-24T00:44:47;12.20;;;4.00;;
25497;SDS011;13406;53.380;7.226;2023-05-24T00:47:12;11.33;;;3.37;;
25497;SDS011;13406;53.380;7.226;2023-05-24T00:49:38;9.37;;;3.90;;
25497;SDS011;13406;53.380;7.226;2023-05-24T00:52:04;12.90;;;3.90;;
25497;SDS011;13406;53.380;7.226;2023-05-24T00:54:30;13.27;;;4.10;;
25497;SDS011;13406;53.380;7.226;2023-05-24T00:56:56;16.00;;;4.97;;
25497;SDS011;13406;53.380;7.226;2023-05-24T00:59:25;14.83;;;4.60;;
25497;SDS011;13406;53.380;7.226;2023-05-24T01:01:50;14.37;;;4.50;;
25497;SDS011;13406;53.380;7.226;2023-05-24T01:04:16;14.47;;;4.03;;
25497;SDS011;13406;53.380;7.226;2023-05-24T01:06:55;10.87;;;4.00;;
25497;SDS011;13406;53.380;7.226;2023-05-24T01:09:28;11.17;;;4.10;;
25497;SDS011;13406;53.380;7.226;2023-05-24T01:13:04;15.10;;;4.23;;
25497;SDS011;13406;53.380;7.226;2023-05-24T01:20:30;14.60;;;4.00;;
25497;SDS011;13406;53.380;7.226;2023-05-24T01:28:27;13.97;;;4.20;;
25497;SDS011;13406;53.380;7.226;2023-05-24T01:30:55;13.70;;;3.13;;
25497;SDS011;13406;53.380;7.226;2023-05-24T01:33:22;11.80;;;4.40;;
25497;SDS011;13406;53.380;7.226;2023-05-24T01:35:48;12.00;;;4.53;;
25497;SDS011;13406;53.380;7.226;2023-05-24T01:38:13;20.10;;;4.40;;
25497;SDS011;13406;53.380;7.226;2023-05-24T01:40:40;11.80;;;3.93;;
25497;SDS011;13406;53.380;7.226;2023-05-24T01:43:17;15.53;;;4.80;;
25497;SDS011;13406;53.380;7.226;2023-05-24T01:45:57;15.67;;;4.30;;
25497;SDS011;13406;53.380;7.226;2023-05-24T01:48:57;14.63;;;3.97;;
25497;SDS011;13406;53.380;7.226;2023-05-24T01:51:23;10.20;;;4.03;;
25497;SDS011;13406;53.380;7.226;2023-05-24T01:53:54;12.63;;;4.33;;
25497;SDS011;13406;53.380;7.226;2023-05-24T01:56:22;18.13;;;4.87;;
25497;SDS011;13406;53.380;7.226;2023-05-24T01:58:51;16.10;;;4.33;;
25497;SDS011;13406;53.380;7.226;2023-05-24T02:01:18;11.77;;;4.07;;
25497;SDS011;13406;53.380;7.226;2023-05-24T02:03:44;10.27;;;4.27;;
25497;SDS011;13406;53.380;7.226;2023-05-24T02:06:10;15.90;;;4.97;;
25497;SDS011;13406;53.380;7.226;2023-05-24T02:08:36;14.23;;;4.43;;
25497;SDS011;13406;53.380;7.226;2023-05-24T02:11:01;16.10;;;4.97;;
25497;SDS011;13406;53.380;7.226;2023-05-24T02:13:26;12.53;;;3.77;;
25497;SDS011;13406;53.380;7.226;2023-05-24T02:15:52;13.60;;;3.67;;
25497;SDS011;13406;53.380;7.226;2023-05-24T02:18:18;11.10;;;3.93;;
25497;SDS011;13406;53.380;7.226;2023-05-24T02:20:44;14.53;;;4.17;;
25497;SDS011;13406;53.380;7.226;2023-05-24T02:23:09;14.30;;;4.40;;
25497;SDS011;13406;53.380;7.226;2023-05-24T02:25:35;10.10;;;3.53;;
25497;SDS011;13406;53.380;7.226;2023-05-24T02:28:00;15.10;;;3.97;;
25497;SDS011;13406;53.380;7.226;2023-05-24T02:30:26;14.97;;;3.80;;
25497;SDS011;13406;53.380;7.226;2023-05-24T02:32:51;15.30;;;4.67;;
25497;SDS011;13406;53.380;7.226;2023-05-24T02:35:17;13.53;;;3.60;;
25497;SDS011;13406;53.380;7.226;2023-05-24T02:37:43;13.40;;;3.40;;
25497;SDS011;13406;53.380;7.226;2023-05-24T02:40:08;11.20;;;4.20;;
25497;SDS011;13406;53.380;7.226;2023-05-24T02:42:34;13.07;;;4.70;;
25497;SDS011;13406;53.380;7.226;2023-05-24T02:44:59;13.03;;;4.40;;
25497;SDS011;13406;53.380;7.226;2023-05-24T02:47:25;9.43;;;3.80;;
25497;SDS011;13406;53.380;7.226;2023-05-24T02:49:51;15.73;;;3.60;;
25497;SDS011;13406;53.380;7.226;2023-05-24T02:52:20;10.30;;;3.60;;
25497;SDS011;13406;53.380;7.226;2023-05-24T02:54:47;17.87;;;4.27;;
25497;SDS011;13406;53.380;7.226;2023-05-24T02:57:15;8.00;;;3.33;;
25497;SDS011;13406;53.380;7.226;2023-05-24T02:59:41;13.40;;;3.63;;
25497;SDS011;13406;53.380;7.226;2023-05-24T03:02:07;16.70;;;4.47;;
25497;SDS011;13406;53.380;7.226;2023-05-24T03:04:33;15.60;;;4.30;;
25497;SDS011;13406;53.380;7.226;2023-05-24T03:06:58;14.27;;;4.87;;
25497;SDS011;13406;53.380;7.226;2023-05-24T03:09:23;17.20;;;5.20;;
25497;SDS011;13406;53.380;7.226;2023-05-24T03:11:49;13.03;;;4.33;;
25497;SDS011;13406;53.380;7.226;2023-05-24T03:14:16;11.53;;;3.73;;
25497;SDS011;13406;53.380;7.226;2023-05-24T03:16:44;13.07;;;4.03;;
25497;SDS011;13406;53.380;7.226;2023-05-24T03:19:10;14.37;;;4.53;;
25497;SDS011;13406;53.380;7.226;2023-05-24T03:21:35;13.80;;;3.90;;
25497;SDS011;13406;53.380;7.226;2023-05-24T03:24:01;16.40;;;4.30;;
25497;SDS011;13406;53.380;7.226;2023-05-24T03:26:26;13.53;;;4.33;;
25497;SDS011;13406;53.380;7.226;2023-05-24T03:28:52;16.13;;;5.27;;
25497;SDS011;13406;53.380;7.226;2023-05-24T03:31:18;14.73;;;4.20;;
25497;SDS011;13406;53.380;7.226;2023-05-24T03:33:50;15.97;;;5.40;;
25497;SDS011;13406;53.380;7.226;2023-05-24T03:36:16;22.93;;;5.07;;
25497;SDS011;13406;53.380;7.226;2023-05-24T03:38:41;18.20;;;4.53;;
25497;SDS011;13406;53.380;7.226;2023-05-24T03:41:07;14.50;;;4.57;;
25497;SDS011;13406;53.380;7.226;2023-05-24T03:43:32;15.10;;;4.00;;
25497;SDS011;13406;53.380;7.226;2023-05-24T03:45:57;13.00;;;4.40;;
25497;SDS011;13406;53.380;7.226;2023-05-24T03:48:23;14.20;;;4.40;;
25497;SDS011;13406;53.380;7.226;2023-05-24T03:50:48;13.57;;;4.50;;
25497;SDS011;13406;53.380;7.226;2023-05-24T03:53:14;13.10;;;3.80;;
25497;SDS011;13406;53.380;7.226;2023-05-24T03:55:39;25.60;;;7.00;;
25497;SDS011;13406;53.380;7.226;2023-05-24T03:58:05;15.70;;;4.50;;
25497;SDS011;13406;53.380;7.226;2023-05-24T04:00:30;12.77;;;3.70;;
25497;SDS011;13406;53.380;7.226;2023-05-24T04:02:55;16.00;;;4.13;;
25497;SDS011;13406;53.380;7.226;2023-05-24T04:05:21;12.20;;;4.50;;
25497;SDS011;13406;53.380;7.226;2023-05-24T04:07:51;16.27;;;4.60;;
25497;SDS011;13406;53.380;7.226;2023-05-24T04:10:16;12.33;;;4.13;;
25497;SDS011;13406;53.380;7.226;2023-05-24T04:12:42;11.20;;;3.63;;
25497;SDS011;13406;53.380;7.226;2023-05-24T04:15:09;12.47;;;4.17;;
25497;SDS011;13406;53.380;7.226;2023-05-24T04:17:38;12.50;;;3.70;;
25497;SDS011;13406;53.380;7.226;2023-05-24T04:20:04;16.50;;;4.67;;
25497;SDS011;13406;53.380;7.226;2023-05-24T04:22:30;12.40;;;3.80;;
25497;SDS011;13406;53.380;7.226;2023-05-24T04:24:55;14.50;;;5.00;;
25497;SDS011;13406;53.380;7.226;2023-05-24T04:27:21;13.13;;;4.00;;
25497;SDS011;13406;53.380;7.226;2023-05-24T04:29:46;17.80;;;4.60;;
25497;SDS011;13406;53.380;7.226;2023-05-24T04:32:13;10.20;;;3.67;;
25497;SDS011;13406;53.380;7.226;2023-05-24T04:34:39;14.30;;;3.60;;
25497;SDS011;13406;53.380;7.226;2023-05-24T04:37:06;11.13;;;3.80;;
25497;SDS011;13406;53.380;7.226;2023-05-24T04:39:32;14.23;;;3.47;;
25497;SDS011;13406;53.380;7.226;2023-05-24T04:41:57;18.37;;;5.10;;
25497;SDS011;13406;53.380;7.226;2023-05-24T04:44:24;15.27;;;4.67;;
25497;SDS011;13406;53.380;7.226;2023-05-24T04:46:50;11.57;;;4.50;;
25497;SDS011;13406;53.380;7.226;2023-05-24T04:49:15;16.03;;;4.60;;
25497;SDS011;13406;53.380;7.226;2023-05-24T04:51:41;18.03;;;5.40;;
25497;SDS011;13406;53.380;7.226;2023-05-24T04:54:07;12.77;;;4.60;;
25497;SDS011;13406;53.380;7.226;2023-05-24T04:56:36;15.80;;;4.40;;
25497;SDS011;13406;53.380;7.226;2023-05-24T04:59:11;12.37;;;4.90;;
25497;SDS011;13406;53.380;7.226;2023-05-24T05:01:37;12.80;;;4.10;;
25497;SDS011;13406;53.380;7.226;2023-05-24T05:04:03;14.20;;;4.30;;
25497;SDS011;13406;53.380;7.226;2023-05-24T05:06:28;12.27;;;4.40;;
25497;SDS011;13406;53.380;7.226;2023-05-24T05:08:54;16.57;;;4.43;;
25497;SDS011;13406;53.380;7.226;2023-05-24T05:11:19;16.77;;;4.60;;
25497;SDS011;13406;53.380;7.226;2023-05-24T05:13:45;11.07;;;4.40;;
25497;SDS011;13406;53.380;7.226;2023-05-24T05:16:10;11.53;;;4.80;;
25497;SDS011;13406;53.380;7.226;2023-05-24T05:18:36;18.00;;;4.83;;
25497;SDS011;13406;53.380;7.226;2023-05-24T05:21:02;16.67;;;4.10;;
25497;SDS011;13406;53.380;7.226;2023-05-24T05:23:28;19.97;;;4.60;;
25497;SDS011;13406;53.380;7.226;2023-05-24T05:25:54;17.20;;;4.80;;
25497;SDS011;13406;53.380;7.226;2023-05-24T05:28:20;15.67;;;4.53;;
25497;SDS011;13406;53.380;7.226;2023-05-24T05:30:45;12.90;;;4.03;;
25497;SDS011;13406;53.380;7.226;2023-05-24T05:33:11;11.50;;;3.50;;
25497;SDS011;13406;53.380;7.226;2023-05-24T05:35:36;18.87;;;4.90;;
25497;SDS011;13406;53.380;7.226;2023-05-24T05:38:02;12.83;;;4.20;;
25497;SDS011;13406;53.380;7.226;2023-05-24T05:40:27;17.93;;;3.80;;
25497;SDS011;13406;53.380;7.226;2023-05-24T05:42:53;14.90;;;4.17;;
25497;SDS011;13406;53.380;7.226;2023-05-24T05:45:18;13.73;;;3.43;;
25497;SDS011;13406;53.380;7.226;2023-05-24T05:47:44;20.20;;;5.30;;
25497;SDS011;13406;53.380;7.226;2023-05-24T05:50:09;14.50;;;4.30;;
25497;SDS011;13406;53.380;7.226;2023-05-24T05:52:35;17.30;;;3.90;;
25497;SDS011;13406;53.380;7.226;2023-05-24T05:55:00;16.80;;;4.80;;
25497;SDS011;13406;53.380;7.226;2023-05-24T05:57:26;9.17;;;3.10;;
25497;SDS011;13406;53.380;7.226;2023-05-24T05:59:51;10.50;;;3.23;;
25497;SDS011;13406;53.380;7.226;2023-05-24T06:02:17;11.83;;;3.83;;
25497;SDS011;13406;53.380;7.226;2023-05-24T06:04:48;11.03;;;3.70;;
25497;SDS011;13406;53.380;7.226;2023-05-24T06:07:14;13.43;;;3.63;;
25497;SDS011;13406;53.380;7.226;2023-05-24T06:09:39;15.60;;;4.27;;
25497;SDS011;13406;53.380;7.226;2023-05-24T06:12:05;14.10;;;3.93;;
25497;SDS011;13406;53.380;7.226;2023-05-24T06:14:30;13.13;;;3.70;;
25497;SDS011;13406;53.380;7.226;2023-05-24T06:16:56;12.30;;;3.77;;
25497;SDS011;13406;53.380;7.226;2023-05-24T06:19:22;13.30;;;4.20;;
25497;SDS011;13406;53.380;7.226;2023-05-24T06:21:47;13.07;;;3.73;;
25497;SDS011;13406;53.380;7.226;2023-05-24T06:24:15;17.10;;;4.40;;
25497;SDS011;13406;53.380;7.226;2023-05-24T06:26:49;9.50;;;3.33;;
25497;SDS011;13406;53.380;7.226;2023-05-24T06:29:15;14.43;;;4.53;;
25497;SDS011;13406;53.380;7.226;2023-05-24T06:31:44;16.30;;;4.77;;
25497;SDS011;13406;53.380;7.226;2023-05-24T06:34:11;11.53;;;4.10;;
25497;SDS011;13406;53.380;7.226;2023-05-24T06:36:37;13.37;;;4.43;;
25497;SDS011;13406;53.380;7.226;2023-05-24T06:39:07;11.33;;;3.43;;
25497;SDS011;13406;53.380;7.226;2023-05-24T06:41:34;10.80;;;3.80;;
25497;SDS011;13406;53.380;7.226;2023-05-24T06:44:00;15.87;;;3.93;;
25497;SDS011;13406;53.380;7.226;2023-05-24T06:46:25;13.67;;;3.90;;
25497;SDS011;13406;53.380;7.226;2023-05-24T06:48:51;12.30;;;3.97;;
25497;SDS011;13406;53.380;7.226;2023-05-24T06:51:16;9.93;;;3.07;;
25497;SDS011;13406;53.380;7.226;2023-05-24T06:53:42;13.23;;;4.20;;
25497;SDS011;13406;53.380;7.226;2023-05-24T06:56:07;12.00;;;3.60;;
25497;SDS011;13406;53.380;7.226;2023-05-24T06:58:33;9.73;;;3.60;;
25497;SDS011;13406;53.380;7.226;2023-05-24T07:00:59;11.33;;;4.30;;
25497;SDS011;13406;53.380;7.226;2023-05-24T07:03:24;10.90;;;3.67;;
25497;SDS011;13406;53.380;7.226;2023-05-24T07:05:50;19.13;;;3.57;;
25497;SDS011;13406;53.380;7.226;2023-05-24T07:08:16;10.73;;;3.37;;
25497;SDS011;13406;53.380;7.226;2023-05-24T07:10:41;11.90;;;3.37;;
25497;SDS011;13406;53.380;7.226;2023-05-24T07:13:08;8.37;;;3.10;;
25497;SDS011;13406;53.380;7.226;2023-05-24T07:15:37;13.60;;;4.17;;
25497;SDS011;13406;53.380;7.226;2023-05-24T07:18:05;12.20;;;3.53;;
25497;SDS011;13406;53.380;7.226;2023-05-24T07:20:31;8.90;;;3.23;;
25497;SDS011;13406;53.380;7.226;2023-05-24T07:22:56;13.83;;;3.73;;
25497;SDS011;13406;53.380;7.226;2023-05-24T07:25:22;9.47;;;3.60;;
25497;SDS011;13406;53.380;7.226;2023-05-24T07:27:48;7.47;;;2.80;;
25497;SDS011;13406;53.380;7.226;2023-05-24T07:30:14;9.47;;;3.20;;
25497;SDS011;13406;53.380;7.226;2023-05-24T07:32:41;14.00;;;3.67;;
25497;SDS011;13406;53.380;7.226;2023-05-24T07:35:06;7.83;;;3.20;;
25497;SDS011;13406;53.380;7.226;2023-05-24T07:37:32;10.97;;;3.13;;
25497;SDS011;13406;53.380;7.226;2023-05-24T07:39:57;11.33;;;3.37;;
25497;SDS011;13406;53.380;7.226;2023-05-24T07:42:23;9.07;;;3.10;;
25497;SDS011;13406;53.380;7.226;2023-05-24T07:44:48;10.43;;;2.80;;
25497;SDS011;13406;53.380;7.226;2023-05-24T07:47:14;8.00;;;3.40;;
25497;SDS011;13406;53.380;7.226;2023-05-24T07:49:39;11.93;;;4.23;;
25497;SDS011;13406;53.380;7.226;2023-05-24T07:52:05;12.47;;;4.13;;
25497;SDS011;13406;53.380;7.226;2023-05-24T07:54:31;6.57;;;2.53;;
25497;SDS011;13406;53.380;7.226;2023-05-24T07:56:56;9.37;;;2.93;;
25497;SDS011;13406;53.380;7.226;2023-05-24T07:59:22;11.40;;;2.97;;
25497;SDS011;13406;53.380;7.226;2023-05-24T08:01:47;9.17;;;2.93;;
25497;SDS011;13406;53.380;7.226;2023-05-24T08:04:13;9.47;;;3.13;;
25497;SDS011;13406;53.380;7.226;2023-05-24T08:06:39;9.07;;;2.90;;
25497;SDS011;13406;53.380;7.226;2023-05-24T08:09:04;11.83;;;3.17;;
25497;SDS011;13406;53.380;7.226;2023-05-24T08:11:32;9.43;;;3.17;;
25497;SDS011;13406;53.380;7.226;2023-05-24T08:13:57;8.23;;;3.00;;
25497;SDS011;13406;53.380;7.226;2023-05-24T08:16:23;12.40;;;3.63;;
25497;SDS011;13406;53.380;7.226;2023-05-24T08:18:48;14.10;;;4.23;;
25497;SDS011;13406;53.380;7.226;2023-05-24T08:21:14;8.97;;;2.57;;
25497;SDS011;13406;53.380;7.226;2023-05-24T08:23:39;10.20;;;3.23;;
25497;SDS011;13406;53.380;7.226;2023-05-24T08:26:05;13.17;;;3.57;;
25497;SDS011;13406;53.380;7.226;2023-05-24T08:28:30;11.13;;;3.20;;
25497;SDS011;13406;53.380;7.226;2023-05-24T08:30:56;8.80;;;3.43;;
25497;SDS011;13406;53.380;7.226;2023-05-24T08:33:23;9.87;;;2.87;;
25497;SDS011;13406;53.380;7.226;2023-05-24T08:35:49;7.73;;;2.37;;
25497;SDS011;13406;53.380;7.226;2023-05-24T08:38:15;8.13;;;2.87;;
25497;SDS011;13406;53.380;7.226;2023-05-24T08:40:41;8.90;;;2.77;;
25497;SDS011;13406;53.380;7.226;2023-05-24T08:43:06;7.20;;;2.70;;
25497;SDS011;13406;53.380;7.226;2023-05-24T08:45:36;7.93;;;3.47;;
25497;SDS011;13406;53.380;7.226;2023-05-24T08:48:03;7.77;;;3.00;;
25497;SDS011;13406;53.380;7.226;2023-05-24T08:50:30;6.67;;;2.57;;
25497;SDS011;13406;53.380;7.226;2023-05-24T08:52:57;8.73;;;2.83;;
25497;SDS011;13406;53.380;7.226;2023-05-24T08:55:23;11.00;;;3.90;;
25497;SDS011;13406;53.380;7.226;2023-05-24T08:57:49;10.83;;;3.50;;
25497;SDS011;13406;53.380;7.226;2023-05-24T09:00:15;12.87;;;3.63;;
25497;SDS011;13406;53.380;7.226;2023-05-24T09:02:42;11.40;;;3.60;;
25497;SDS011;13406;53.380;7.226;2023-05-24T09:05:12;8.03;;;3.27;;
25497;SDS011;13406;53.380;7.226;2023-05-24T09:07:41;8.43;;;2.83;;
25497;SDS011;13406;53.380;7.226;2023-05-24T09:10:08;11.53;;;4.30;;
25497;SDS011;13406;53.380;7.226;2023-05-24T09:12:37;13.47;;;3.80;;
25497;SDS011;13406;53.380;7.226;2023-05-24T09:15:05;9.23;;;3.90;;
25497;SDS011;13406;53.380;7.226;2023-05-24T09:17:31;9.30;;;3.43;;
25497;SDS011;13406;53.380;7.226;2023-05-24T09:19:59;11.07;;;3.60;;
25497;SDS011;13406;53.380;7.226;2023-05-24T09:22:25;14.80;;;3.90;;
25497;SDS011;13406;53.380;7.226;2023-05-24T09:24:52;8.93;;;3.17;;
25497;SDS011;13406;53.380;7.226;2023-05-24T09:27:22;10.27;;;3.30;;
25497;SDS011;13406;53.380;7.226;2023-05-24T09:29:48;6.83;;;3.33;;
25497;SDS011;13406;53.380;7.226;2023-05-24T09:32:15;9.23;;;2.87;;
25497;SDS011;13406;53.380;7.226;2023-05-24T09:34:41;9.10;;;3.30;;
25497;SDS011;13406;53.380;7.226;2023-05-24T09:37:14;11.10;;;3.10;;
25497;SDS011;13406;53.380;7.226;2023-05-24T09:39:41;10.13;;;3.40;;
25497;SDS011;13406;53.380;7.226;2023-05-24T09:42:13;9.27;;;3.60;;
25497;SDS011;13406;53.380;7.226;2023-05-24T09:44:39;6.83;;;2.70;;
25497;SDS011;13406;53.380;7.226;2023-05-24T09:47:04;10.57;;;3.43;;
25497;SDS011;13406;53.380;7.226;2023-05-24T09:49:30;12.23;;;3.20;;
25497;SDS011;13406;53.380;7.226;2023-05-24T09:51:55;12.17;;;3.70;;
25497;SDS011;13406;53.380;7.226;2023-05-24T09:54:22;7.03;;;2.40;;
25497;SDS011;13406;53.380;7.226;2023-05-24T09:56:50;9.07;;;3.37;;
25497;SDS011;13406;53.380;7.226;2023-05-24T09:59:15;8.77;;;2.60;;
25497;SDS011;13406;53.380;7.226;2023-05-24T10:01:41;10.70;;;3.30;;
25497;SDS011;13406;53.380;7.226;2023-05-24T10:04:06;7.67;;;2.73;;
25497;SDS011;13406;53.380;7.226;2023-05-24T10:06:32;11.80;;;2.90;;
25497;SDS011;13406;53.380;7.226;2023-05-24T10:09:01;6.43;;;2.70;;
25497;SDS011;13406;53.380;7.226;2023-05-24T10:11:29;7.50;;;2.67;;
25497;SDS011;13406;53.380;7.226;2023-05-24T10:13:56;9.07;;;2.80;;
25497;SDS011;13406;53.380;7.226;2023-05-24T10:16:23;17.40;;;3.07;;
25497;SDS011;13406;53.380;7.226;2023-05-24T10:18:49;10.33;;;2.87;;
25497;SDS011;13406;53.380;7.226;2023-05-24T10:21:14;9.27;;;3.00;;
25497;SDS011;13406;53.380;7.226;2023-05-24T10:23:44;8.83;;;2.80;;
25497;SDS011;13406;53.380;7.226;2023-05-24T10:26:15;8.87;;;2.87;;
25497;SDS011;13406;53.380;7.226;2023-05-24T10:28:43;6.40;;;2.83;;
25497;SDS011;13406;53.380;7.226;2023-05-24T10:33:43;8.57;;;2.60;;
25497;SDS011;13406;53.380;7.226;2023-05-24T10:36:12;11.47;;;2.97;;
25497;SDS011;13406;53.380;7.226;2023-05-24T10:38:40;10.60;;;2.70;;
25497;SDS011;13406;53.380;7.226;2023-05-24T10:41:06;9.60;;;2.93;;
25497;SDS011;13406;53.380;7.226;2023-05-24T10:43:35;7.00;;;2.40;;
25497;SDS011;13406;53.380;7.226;2023-05-24T10:46:02;9.53;;;2.73;;
25497;SDS011;13406;53.380;7.226;2023-05-24T10:48:31;7.70;;;3.17;;
25497;SDS011;13406;53.380;7.226;2023-05-24T10:50:59;8.97;;;3.10;;
25497;SDS011;13406;53.380;7.226;2023-05-24T10:53:25;9.10;;;2.80;;
25497;SDS011;13406;53.380;7.226;2023-05-24T10:56:01;7.03;;;3.13;;
25497;SDS011;13406;53.380;7.226;2023-05-24T10:58:43;5.87;;;2.57;;
25497;SDS011;13406;53.380;7.226;2023-05-24T11:01:13;6.40;;;2.80;;
25497;SDS011;13406;53.380;7.226;2023-05-24T11:03:48;7.73;;;2.60;;
25497;SDS011;13406;53.380;7.226;2023-05-24T11:06:14;6.47;;;2.90;;
25497;SDS011;13406;53.380;7.226;2023-05-24T11:08:40;3.57;;;2.10;;
25497;SDS011;13406;53.380;7.226;2023-05-24T11:13:37;11.37;;;3.20;;
25497;SDS011;13406;53.380;7.226;2023-05-24T11:16:04;9.70;;;3.30;;
25497;SDS011;13406;53.380;7.226;2023-05-24T11:18:32;8.10;;;2.90;;
25497;SDS011;13406;53.380;7.226;2023-05-24T11:21:02;10.30;;;2.60;;
25497;SDS011;13406;53.380;7.226;2023-05-24T11:23:29;10.67;;;3.03;;
25497;SDS011;13406;53.380;7.226;2023-05-24T11:25:55;6.40;;;2.43;;
25497;SDS011;13406;53.380;7.226;2023-05-24T11:28:21;8.43;;;2.70;;
25497;SDS011;13406;53.380;7.226;2023-05-24T11:30:47;6.60;;;2.70;;
25497;SDS011;13406;53.380;7.226;2023-05-24T11:33:16;8.20;;;2.57;;
25497;SDS011;13406;53.380;7.226;2023-05-24T11:35:44;10.63;;;3.57;;
25497;SDS011;13406;53.380;7.226;2023-05-24T11:38:10;7.40;;;2.70;;
25497;SDS011;13406;53.380;7.226;2023-05-24T11:40:42;4.33;;;2.13;;
25497;SDS011;13406;53.380;7.226;2023-05-24T11:43:12;6.80;;;2.53;;
25497;SDS011;13406;53.380;7.226;2023-05-24T11:45:41;7.07;;;2.70;;
25497;SDS011;13406;53.380;7.226;2023-05-24T11:48:08;5.93;;;2.33;;
25497;SDS011;13406;53.380;7.226;2023-05-24T11:50:42;6.77;;;2.23;;
25497;SDS011;13406;53.380;7.226;2023-05-24T11:53:13;7.03;;;2.50;;
25497;SDS011;13406;53.380;7.226;2023-05-24T11:55:40;5.53;;;2.63;;
25497;SDS011;13406;53.380;7.226;2023-05-24T12:00:41;5.27;;;2.13;;
25497;SDS011;13406;53.380;7.226;2023-05-24T12:03:07;5.13;;;2.17;;
25497;SDS011;13406;53.380;7.226;2023-05-24T12:05:33;5.97;;;2.73;;
25497;SDS011;13406;53.380;7.226;2023-05-24T12:08:04;5.17;;;2.67;;
25497;SDS011;13406;53.380;7.226;2023-05-24T12:10:35;6.33;;;2.50;;
25497;SDS011;13406;53.380;7.226;2023-05-24T12:13:02;7.87;;;3.07;;
25497;SDS011;13406;53.380;7.226;2023-05-24T12:15:28;8.13;;;2.90;;
25497;SDS011;13406;53.380;7.226;2023-05-24T12:17:54;9.50;;;2.40;;
25497;SDS011;13406;53.380;7.226;2023-05-24T12:20:20;4.63;;;2.33;;
25497;SDS011;13406;53.380;7.226;2023-05-24T12:22:47;7.87;;;3.10;;
25497;SDS011;13406;53.380;7.226;2023-05-24T12:25:15;8.27;;;2.87;;
25497;SDS011;13406;53.380;7.226;2023-05-24T12:27:45;10.20;;;3.83;;
25497;SDS011;13406;53.380;7.226;2023-05-24T12:30:16;8.53;;;2.67;;
25497;SDS011;13406;53.380;7.226;2023-05-24T12:32:47;11.63;;;2.80;;
25497;SDS011;13406;53.380;7.226;2023-05-24T12:35:13;8.10;;;2.90;;
25497;SDS011;13406;53.380;7.226;2023-05-24T12:37:41;5.27;;;2.80;;
25497;SDS011;13406;53.380;7.226;2023-05-24T12:40:20;9.60;;;2.97;;
25497;SDS011;13406;53.380;7.226;2023-05-24T12:42:51;9.63;;;2.90;;
25497;SDS011;13406;53.380;7.226;2023-05-24T12:45:18;6.90;;;2.50;;
25497;SDS011;13406;53.380;7.226;2023-05-24T12:47:51;7.57;;;3.07;;
25497;SDS011;13406;53.380;7.226;2023-05-24T12:50:21;5.03;;;2.53;;
25497;SDS011;13406;53.380;7.226;2023-05-24T12:52:47;8.23;;;3.30;;
25497;SDS011;13406;53.380;7.226;2023-05-24T12:55:17;11.00;;;3.00;;
25497;SDS011;13406;53.380;7.226;2023-05-24T12:57:43;7.50;;;2.40;;
25497;SDS011;13406;53.380;7.226;2023-05-24T13:00:16;9.87;;;2.63;;
25497;SDS011;13406;53.380;7.226;2023-05-24T13:02:43;10.30;;;3.23;;
25497;SDS011;13406;53.380;7.226;2023-05-24T13:05:08;7.87;;;2.80;;
25497;SDS011;13406;53.380;7.226;2023-05-24T13:07:34;5.10;;;2.27;;
25497;SDS011;13406;53.380;7.226;2023-05-24T13:10:00;17.63;;;3.00;;
25497;SDS011;13406;53.380;7.226;2023-05-24T13:12:26;8.63;;;2.90;;
25497;SDS011;13406;53.380;7.226;2023-05-24T13:14:52;7.33;;;2.50;;
25497;SDS011;13406;53.380;7.226;2023-05-24T13:17:17;6.87;;;2.43;;
25497;SDS011;13406;53.380;7.226;2023-05-24T13:19:43;4.80;;;2.13;;
25497;SDS011;13406;53.380;7.226;2023-05-24T13:22:08;7.70;;;2.97;;
25497;SDS011;13406;53.380;7.226;2023-05-24T13:24:34;9.40;;;2.77;;
25497;SDS011;13406;53.380;7.226;2023-05-24T13:27:00;8.10;;;2.53;;
25497;SDS011;13406;53.380;7.226;2023-05-24T13:29:27;9.80;;;3.10;;
25497;SDS011;13406;53.380;7.226;2023-05-24T13:31:53;8.20;;;2.80;;
25497;SDS011;13406;53.380;7.226;2023-05-24T13:34:20;9.23;;;3.03;;
25497;SDS011;13406;53.380;7.226;2023-05-24T13:36:48;9.87;;;3.43;;
25497;SDS011;13406;53.380;7.226;2023-05-24T13:39:14;6.83;;;3.13;;
25497;SDS011;13406;53.380;7.226;2023-05-24T13:41:40;11.30;;;4.00;;
25497;SDS011;13406;53.380;7.226;2023-05-24T13:44:08;9.70;;;3.23;;
25497;SDS011;13406;53.380;7.226;2023-05-24T13:46:34;8.73;;;3.70;;
25497;SDS011;13406;53.380;7.226;2023-05-24T13:49:00;9.77;;;2.90;;
25497;SDS011;13406;53.380;7.226;2023-05-24T13:51:26;11.77;;;3.80;;
25497;SDS011;13406;53.380;7.226;2023-05-24T13:53:51;11.50;;;3.47;;
25497;SDS011;13406;53.380;7.226;2023-05-24T13:56:19;13.10;;;3.70;;
25497;SDS011;13406;53.380;7.226;2023-05-24T13:58:46;10.20;;;3.50;;
25497;SDS011;13406;53.380;7.226;2023-05-24T14:01:12;8.47;;;3.27;;
25497;SDS011;13406;53.380;7.226;2023-05-24T14:03:37;10.87;;;3.30;;
25497;SDS011;13406;53.380;7.226;2023-05-24T14:06:04;10.33;;;3.17;;
25497;SDS011;13406;53.380;7.226;2023-05-24T14:08:31;12.43;;;3.73;;
25497;SDS011;13406;53.380;7.226;2023-05-24T14:10:57;10.40;;;3.33;;
25497;SDS011;13406;53.380;7.226;2023-05-24T14:13:23;9.77;;;2.93;;
25497;SDS011;13406;53.380;7.226;2023-05-24T14:15:48;7.33;;;2.97;;
25497;SDS011;13406;53.380;7.226;2023-05-24T14:18:14;10.10;;;3.40;;
25497;SDS011;13406;53.380;7.226;2023-05-24T14:20:40;9.20;;;3.23;;
25497;SDS011;13406;53.380;7.226;2023-05-24T14:23:06;8.30;;;2.90;;
25497;SDS011;13406;53.380;7.226;2023-05-24T14:25:32;10.03;;;4.10;;
25497;SDS011;13406;53.380;7.226;2023-05-24T14:27:57;10.70;;;3.00;;
25497;SDS011;13406;53.380;7.226;2023-05-24T14:30:23;9.23;;;3.00;;
25497;SDS011;13406;53.380;7.226;2023-05-24T14:32:50;6.13;;;1.90;;
25497;SDS011;13406;53.380;7.226;2023-05-24T14:35:15;9.60;;;3.53;;
25497;SDS011;13406;53.380;7.226;2023-05-24T14:37:41;11.70;;;3.30;;
25497;SDS011;13406;53.380;7.226;2023-05-24T14:40:07;8.27;;;3.33;;
25497;SDS011;13406;53.380;7.226;2023-05-24T14:42:35;8.07;;;3.00;;
25497;SDS011;13406;53.380;7.226;2023-05-24T14:45:00;9.10;;;3.43;;
25497;SDS011;13406;53.380;7.226;2023-05-24T14:47:26;10.17;;;3.30;;
25497;SDS011;13406;53.380;7.226;2023-05-24T14:49:52;8.93;;;3.10;;
25497;SDS011;13406;53.380;7.226;2023-05-24T14:52:18;8.60;;;3.33;;
25497;SDS011;13406;53.380;7.226;2023-05-24T14:54:43;9.30;;;3.10;;